Time;durP1;ratioP1;P1;durP2;ratioP2;P2;SDS_P1;SDS_P2;PMS_P1;PMS_P2;Temp;Humidity;BMP_temperature;BMP_pressure;BME280_temperature;BME280_humidity;BME280_pressure;Samples;Min_cycle;Max_cycle;Signal;HPM_P1;HPM_P2
2023/08/01 00:02:24;;;;;;;3.72;1.83;;;21.80;63.80;;;;;;4933966;28;20148;-62
2023/08/01 00:04:50;;;;;;;2.83;2.22;;;21.70;63.70;;;;;;4938087;28;20032;-62
2023/08/01 00:07:15;;;;;;;4.00;2.38;;;21.70;63.70;;;;;;4938060;28;20036;-62
2023/08/01 00:09:41;;;;;;;2.80;2.00;;;21.70;63.80;;;;;;4937900;28;20050;-62
2023/08/01 00:12:07;;;;;;;3.40;2.47;;;21.70;63.90;;;;;;4939754;28;21754;-62
2023/08/01 00:14:32;;;;;;;2.72;2.38;;;21.70;63.90;;;;;;4941559;28;20189;-62
2023/08/01 00:16:58;;;;;;;3.28;2.45;;;21.60;63.80;;;;;;4939611;28;20134;-63
2023/08/01 00:19:23;;;;;;;2.10;1.70;;;21.60;63.90;;;;;;4942018;28;20039;-63
2023/08/01 00:21:49;;;;;;;3.00;2.00;;;21.60;64.00;;;;;;4942723;28;20032;-63
2023/08/01 00:24:15;;;;;;;2.50;2.05;;;21.60;64.10;;;;;;4939804;28;20393;-62
2023/08/01 00:26:40;;;;;;;3.60;2.20;;;21.60;64.00;;;;;;4928705;28;20043;-62
2023/08/01 00:29:06;;;;;;;3.00;2.22;;;21.60;64.00;;;;;;4939272;28;20138;-62
2023/08/01 00:31:31;;;;;;;3.63;2.28;;;21.60;63.90;;;;;;4939328;28;20031;-61
2023/08/01 00:33:57;;;;;;;2.50;2.25;;;21.50;63.80;;;;;;4939667;29;20082;-61
2023/08/01 00:36:23;;;;;;;3.75;2.10;;;21.50;63.40;;;;;;4941347;28;20415;-63
2023/08/01 00:38:48;;;;;;;2.58;2.28;;;21.50;63.30;;;;;;4935848;28;20057;-62
2023/08/01 00:41:14;;;;;;;2.35;2.10;;;21.50;63.30;;;;;;4938140;28;20036;-62
2023/08/01 00:43:40;;;;;;;4.85;2.30;;;21.50;63.30;;;;;;4940192;28;20514;-61
2023/08/01 00:46:08;;;;;;;2.80;2.35;;;21.50;63.50;;;;;;4937797;28;20465;-62
2023/08/01 00:48:33;;;;;;;3.25;2.45;;;21.50;63.40;;;;;;4938615;28;20142;-62
2023/08/01 00:51:09;;;;;;;3.03;2.17;;;21.50;63.20;;;;;;4938352;28;20122;-62
2023/08/01 00:53:36;;;;;;;2.95;1.98;;;21.50;63.20;;;;;;4936668;28;20062;-62
2023/08/01 00:56:02;;;;;;;3.92;2.25;;;21.50;63.00;;;;;;4938482;28;20522;-62
2023/08/01 00:58:27;;;;;;;3.53;2.22;;;21.50;63.10;;;;;;4939252;28;20122;-62
2023/08/01 01:00:53;;;;;;;2.50;2.05;;;21.50;63.20;;;;;;4940722;28;20015;-60
2023/08/01 01:03:19;;;;;;;3.13;2.30;;;21.50;63.20;;;;;;4938854;28;20487;-62
2023/08/01 01:05:53;;;;;;;2.22;1.95;;;21.50;63.30;;;;;;4938594;28;20035;-61
2023/08/01 01:08:19;;;;;;;5.60;2.60;;;21.50;63.20;;;;;;4937238;28;20043;-61
2023/08/01 01:10:45;;;;;;;4.28;2.35;;;21.50;63.10;;;;;;4938366;28;20189;-61
2023/08/01 01:13:10;;;;;;;3.53;2.38;;;21.50;63.20;;;;;;4937584;28;20577;-62
2023/08/01 01:15:36;;;;;;;3.05;2.25;;;21.50;63.20;;;;;;4938939;28;20043;-62
2023/08/01 01:18:01;;;;;;;4.13;2.50;;;21.50;63.20;;;;;;4940126;28;20129;-61
2023/08/01 01:20:33;;;;;;;2.60;2.40;;;21.50;63.10;;;;;;4941622;28;20039;-62
2023/08/01 01:23:00;;;;;;;4.50;2.05;;;21.50;63.40;;;;;;4941518;28;20028;-62
2023/08/01 01:25:27;;;;;;;2.30;2.05;;;21.50;63.30;;;;;;4941558;28;20410;-62
2023/08/01 01:27:54;;;;;;;2.10;1.90;;;21.50;63.30;;;;;;4942314;28;20502;-63
2023/08/01 01:30:20;;;;;;;5.32;2.72;;;21.50;63.40;;;;;;4938560;28;20071;-62
2023/08/01 01:32:46;;;;;;;3.75;2.28;;;21.50;63.30;;;;;;4937390;28;20484;-61
2023/08/01 01:35:12;;;;;;;2.95;2.10;;;21.50;63.30;;;;;;4938760;28;20070;-60
2023/08/01 01:37:37;;;;;;;2.83;2.13;;;21.50;63.30;;;;;;4939064;28;20031;-61
2023/08/01 01:40:03;;;;;;;3.25;2.10;;;21.50;63.70;;;;;;4937314;29;20515;-60
2023/08/01 01:42:29;;;;;;;2.35;2.15;;;21.50;64.40;;;;;;4939428;28;21008;-60
2023/08/01 01:44:54;;;;;;;3.22;2.45;;;21.50;64.90;;;;;;4938387;28;20040;-59
2023/08/01 01:47:20;;;;;;;3.15;2.33;;;21.50;65.30;;;;;;4938017;28;20643;-60
2023/08/01 01:49:45;;;;;;;5.43;2.17;;;21.50;65.30;;;;;;4938791;28;20411;-61
2023/08/01 01:52:11;;;;;;;3.63;2.55;;;21.50;65.50;;;;;;4936674;29;20035;-61
2023/08/01 01:54:36;;;;;;;3.63;2.42;;;21.40;65.90;;;;;;4936210;28;20079;-61
2023/08/01 01:57:02;;;;;;;2.70;2.25;;;21.40;66.30;;;;;;4935660;28;20293;-60
2023/08/01 01:59:28;;;;;;;2.88;2.25;;;21.40;66.50;;;;;;4937421;28;20411;-61
2023/08/01 02:01:53;;;;;;;4.68;2.45;;;21.40;66.90;;;;;;4938055;28;20043;-59
2023/08/01 02:04:19;;;;;;;2.88;2.10;;;21.30;67.20;;;;;;4938134;28;20499;-60
2023/08/01 02:06:45;;;;;;;4.50;2.40;;;21.30;67.60;;;;;;4936260;28;20043;-61
2023/08/01 02:09:10;;;;;;;2.83;2.33;;;21.30;68.00;;;;;;4938721;28;20086;-60
2023/08/01 02:11:36;;;;;;;2.60;2.40;;;21.30;68.20;;;;;;4937332;28;20036;-60
2023/08/01 02:14:02;;;;;;;3.75;2.15;;;21.20;68.10;;;;;;4937095;28;20046;-61
2023/08/01 02:16:28;;;;;;;4.00;2.60;;;21.20;68.60;;;;;;4936503;28;20039;-60
2023/08/01 02:18:54;;;;;;;3.72;2.42;;;21.10;68.90;;;;;;4938156;28;20451;-61
2023/08/01 02:21:19;;;;;;;2.50;2.22;;;21.10;69.20;;;;;;4938764;28;20411;-59
2023/08/01 02:23:45;;;;;;;3.95;2.88;;;21.00;69.20;;;;;;4936886;28;20425;-60
2023/08/01 02:26:10;;;;;;;3.83;2.63;;;21.00;69.60;;;;;;4934788;28;20054;-60
2023/08/01 02:28:36;;;;;;;3.25;2.45;;;21.00;69.90;;;;;;4938364;28;20039;-59
2023/08/01 02:31:02;;;;;;;4.82;2.80;;;20.90;70.20;;;;;;4936827;28;20071;-59
2023/08/01 02:33:27;;;;;;;3.67;2.60;;;20.80;70.40;;;;;;4938753;28;20411;-60
2023/08/01 02:35:53;;;;;;;4.68;2.65;;;20.70;70.60;;;;;;4937094;28;20031;-61
2023/08/01 02:38:18;;;;;;;3.53;2.75;;;20.60;70.90;;;;;;4936676;28;20082;-60
2023/08/01 02:40:44;;;;;;;4.20;2.42;;;20.60;71.60;;;;;;4938367;28;20035;-61
2023/08/01 02:43:09;;;;;;;5.32;2.90;;;20.50;71.80;;;;;;4937364;29;20249;-60
2023/08/01 02:45:35;;;;;;;3.75;2.70;;;20.50;73.20;;;;;;4937929;28;20063;-60
2023/08/01 02:48:01;;;;;;;4.40;2.95;;;20.40;73.00;;;;;;4937294;28;20035;-61
2023/08/01 02:50:26;;;;;;;3.15;2.55;;;20.30;73.20;;;;;;4936255;28;20051;-61
2023/08/01 02:52:52;;;;;;;5.32;2.97;;;20.30;73.80;;;;;;4938155;28;20039;-60
2023/08/01 02:55:17;;;;;;;5.75;3.00;;;20.20;73.70;;;;;;4939239;28;20438;-60
2023/08/01 02:57:43;;;;;;;5.57;2.67;;;20.20;73.90;;;;;;4935492;28;20032;-61
2023/08/01 03:00:11;;;;;;;7.50;2.50;;;20.10;74.10;;;;;;4936202;28;20132;-59
2023/08/01 03:02:38;;;;;;;3.92;2.55;;;20.10;74.30;;;;;;4936560;28;20031;-61
2023/08/01 03:05:07;;;;;;;3.60;3.00;;;20.10;74.60;;;;;;4937348;28;20042;-61
2023/08/01 03:07:33;;;;;;;5.20;3.00;;;20.10;74.80;;;;;;4937115;28;20070;-60
2023/08/01 03:09:58;;;;;;;4.03;2.70;;;20.10;74.60;;;;;;4937783;28;20130;-61
2023/08/01 03:12:24;;;;;;;5.05;2.88;;;20.10;74.70;;;;;;4938208;28;20046;-61
2023/08/01 03:14:50;;;;;;;3.65;3.08;;;20.00;74.90;;;;;;4936547;28;20027;-61
2023/08/01 03:17:16;;;;;;;3.38;2.63;;;20.00;75.30;;;;;;4935195;28;20059;-60
2023/08/01 03:19:42;;;;;;;4.30;2.42;;;20.00;75.30;;;;;;4938929;28;20114;-59
2023/08/01 03:22:08;;;;;;;2.97;2.67;;;19.90;75.40;;;;;;4940148;28;20511;-59
2023/08/01 03:24:33;;;;;;;3.58;3.10;;;19.90;75.60;;;;;;4939587;28;20031;-60
2023/08/01 03:26:59;;;;;;;3.58;2.58;;;19.90;76.70;;;;;;4939053;28;20043;-61
2023/08/01 03:29:24;;;;;;;5.32;3.08;;;19.90;76.20;;;;;;4937880;28;20044;-61
2023/08/01 03:31:50;;;;;;;4.97;2.80;;;19.90;76.30;;;;;;4937338;28;20058;-61
2023/08/01 03:34:16;;;;;;;3.33;2.63;;;19.80;76.20;;;;;;4936261;28;20499;-61
2023/08/01 03:36:42;;;;;;;5.20;3.03;;;19.80;76.60;;;;;;4936890;28;20170;-61
2023/08/01 03:39:09;;;;;;;5.53;2.95;;;19.90;77.20;;;;;;4936085;28;20058;-59
2023/08/01 03:41:35;;;;;;;4.07;3.03;;;19.80;77.50;;;;;;4936745;28;20435;-60
2023/08/01 03:44:01;;;;;;;3.65;2.97;;;19.70;77.50;;;;;;4935638;28;20044;-61
2023/08/01 03:46:26;;;;;;;4.05;2.90;;;19.70;77.80;;;;;;4936137;28;20121;-61
2023/08/01 03:48:52;;;;;;;5.22;3.03;;;19.60;78.00;;;;;;4936645;28;20075;-60
2023/08/01 03:51:19;;;;;;;4.93;2.90;;;19.60;78.00;;;;;;4939876;28;20070;-60
2023/08/01 03:53:45;;;;;;;3.42;2.85;;;19.60;78.20;;;;;;4939358;28;20047;-60
2023/08/01 03:56:11;;;;;;;4.40;3.20;;;19.50;78.40;;;;;;4939836;28;20094;-61
2023/08/01 03:58:36;;;;;;;3.58;2.80;;;19.50;78.50;;;;;;4940216;28;20043;-61
2023/08/01 04:01:02;;;;;;;4.47;2.80;;;19.50;78.40;;;;;;4937837;28;20066;-59
2023/08/01 04:03:28;;;;;;;5.30;3.03;;;19.50;78.60;;;;;;4941630;28;20447;-60
2023/08/01 04:05:54;;;;;;;3.45;2.97;;;19.50;78.70;;;;;;4940781;28;20046;-60
2023/08/01 04:08:19;;;;;;;5.63;3.03;;;19.50;78.70;;;;;;4938738;28;20062;-60
2023/08/01 04:10:45;;;;;;;4.65;3.40;;;19.40;78.70;;;;;;4941059;28;20130;-60
2023/08/01 04:13:11;;;;;;;3.63;2.50;;;19.50;78.80;;;;;;4939385;28;20090;-60
2023/08/01 04:15:36;;;;;;;4.60;3.30;;;19.50;78.80;;;;;;4938839;28;20041;-60
2023/08/01 04:18:02;;;;;;;4.38;3.40;;;19.50;79.00;;;;;;4939749;28;20039;-60
2023/08/01 04:20:28;;;;;;;3.92;3.15;;;19.50;78.90;;;;;;4942034;28;20420;-59
2023/08/01 04:22:53;;;;;;;4.45;2.90;;;19.50;79.80;;;;;;4939992;28;20067;-60
2023/08/01 04:25:19;;;;;;;5.07;2.92;;;19.50;79.10;;;;;;4937454;28;20407;-59
2023/08/01 04:27:44;;;;;;;3.50;3.20;;;19.50;79.10;;;;;;4939811;28;20086;-60
2023/08/01 04:30:11;;;;;;;4.18;3.17;;;19.60;79.40;;;;;;4942134;28;20128;-60
2023/08/01 04:32:36;;;;;;;4.10;3.25;;;19.60;79.40;;;;;;4941114;28;20036;-59
2023/08/01 04:35:02;;;;;;;4.45;3.20;;;19.60;79.40;;;;;;4942139;28;20047;-59
2023/08/01 04:37:27;;;;;;;5.05;3.63;;;19.60;80.20;;;;;;4940794;28;20039;-61
2023/08/01 04:39:53;;;;;;;4.28;3.35;;;19.60;79.40;;;;;;4941169;28;20436;-58
2023/08/01 04:42:18;;;;;;;3.90;3.35;;;19.70;79.40;;;;;;4942141;28;20172;-59
2023/08/01 04:44:44;;;;;;;3.45;2.80;;;19.70;79.60;;;;;;4941350;28;20514;-59
2023/08/01 04:47:10;;;;;;;5.18;2.95;;;19.70;79.60;;;;;;4941066;28;20035;-58
2023/08/01 04:49:35;;;;;;;7.72;3.47;;;19.70;79.40;;;;;;4941423;28;20415;-59
2023/08/01 04:52:01;;;;;;;4.03;3.17;;;19.70;79.40;;;;;;4941465;28;20050;-60
2023/08/01 04:54:26;;;;;;;4.60;3.17;;;19.70;79.40;;;;;;4941993;28;20047;-60
2023/08/01 04:56:52;;;;;;;4.38;2.92;;;19.70;79.10;;;;;;4939569;28;20434;-62
2023/08/01 04:59:18;;;;;;;3.55;2.97;;;19.70;79.10;;;;;;4939481;28;20187;-60
2023/08/01 05:01:43;;;;;;;4.85;3.28;;;19.80;79.30;;;;;;4942256;28;20054;-59
2023/08/01 05:04:09;;;;;;;5.60;3.42;;;19.70;79.30;;;;;;4942029;28;20566;-60
2023/08/01 05:06:34;;;;;;;4.55;3.20;;;19.70;79.20;;;;;;4939767;28;20443;-60
2023/08/01 05:09:00;;;;;;;4.32;2.90;;;19.70;79.10;;;;;;4939680;28;20043;-59
2023/08/01 05:11:26;;;;;;;4.18;3.20;;;19.70;79.10;;;;;;4942072;28;20134;-58
2023/08/01 05:13:51;;;;;;;4.82;2.92;;;19.70;78.90;;;;;;4940911;29;20119;-60
2023/08/01 05:16:17;;;;;;;4.00;2.92;;;19.70;78.80;;;;;;4939917;28;20411;-61
2023/08/01 05:18:42;;;;;;;5.57;3.13;;;19.70;78.90;;;;;;4940131;28;20094;-59
2023/08/01 05:21:08;;;;;;;4.68;3.05;;;19.70;78.60;;;;;;4941244;29;20110;-61
2023/08/01 05:23:33;;;;;;;4.88;2.70;;;19.70;78.60;;;;;;4941466;28;20051;-61
2023/08/01 05:25:59;;;;;;;3.67;2.92;;;19.60;78.60;;;;;;4941474;28;20039;-60
2023/08/01 05:28:24;;;;;;;4.88;2.90;;;19.60;78.60;;;;;;4941436;28;20044;-58
2023/08/01 05:30:50;;;;;;;4.13;2.80;;;19.50;78.40;;;;;;4940492;28;20095;-60
2023/08/01 05:33:16;;;;;;;4.13;3.08;;;19.60;78.50;;;;;;4940415;28;20452;-60
2023/08/01 05:35:41;;;;;;;4.00;3.03;;;19.60;78.50;;;;;;4940772;28;20464;-59
2023/08/01 05:38:07;;;;;;;5.25;2.90;;;19.50;78.40;;;;;;4937534;28;20090;-58
2023/08/01 05:40:32;;;;;;;6.95;3.00;;;19.50;78.40;;;;;;4940521;28;20032;-60
2023/08/01 05:42:59;;;;;;;3.47;2.67;;;19.40;78.40;;;;;;4941058;28;20047;-60
2023/08/01 05:45:24;;;;;;;4.25;2.72;;;19.40;78.40;;;;;;4939265;28;20499;-58
2023/08/01 05:47:50;;;;;;;6.28;3.20;;;19.40;78.40;;;;;;4940027;28;20102;-59
2023/08/01 05:50:15;;;;;;;3.97;3.03;;;19.40;78.60;;;;;;4940534;28;20058;-58
2023/08/01 05:52:41;;;;;;;3.65;2.80;;;19.30;78.70;;;;;;4940043;28;20095;-59
2023/08/01 05:55:07;;;;;;;3.50;2.75;;;19.40;78.90;;;;;;4939349;28;20403;-59
2023/08/01 05:57:32;;;;;;;3.33;2.90;;;19.30;79.00;;;;;;4939559;28;20094;-60
2023/08/01 05:59:58;;;;;;;4.82;3.20;;;19.30;79.20;;;;;;4939070;28;20038;-60
2023/08/01 06:02:24;;;;;;;4.85;2.92;;;19.30;80.30;;;;;;4938573;28;20039;-59
2023/08/01 06:04:50;;;;;;;4.55;3.05;;;19.30;79.70;;;;;;4939216;28;20039;-59
2023/08/01 06:07:15;;;;;;;3.67;2.80;;;19.30;80.00;;;;;;4940335;28;20122;-58
2023/08/01 06:09:41;;;;;;;5.03;3.33;;;19.30;80.10;;;;;;4939367;28;20055;-60
2023/08/01 06:12:07;;;;;;;4.25;2.90;;;19.30;80.30;;;;;;4939436;28;20039;-59
2023/08/01 06:14:32;;;;;;;6.28;3.08;;;19.20;80.20;;;;;;4938980;28;20145;-60
2023/08/01 06:16:58;;;;;;;6.10;3.03;;;19.20;80.50;;;;;;4940793;28;20047;-58
2023/08/01 06:19:23;;;;;;;5.03;3.53;;;19.20;80.60;;;;;;4940682;28;20041;-58
2023/08/01 06:21:49;;;;;;;4.72;2.83;;;19.20;80.80;;;;;;4939159;28;20127;-60
2023/08/01 06:24:14;;;;;;;3.90;2.80;;;19.20;80.60;;;;;;4939535;28;20143;-58
2023/08/01 06:26:40;;;;;;;4.53;3.08;;;19.20;80.60;;;;;;4939045;28;20027;-59
2023/08/01 06:29:06;;;;;;;4.93;3.25;;;19.10;80.40;;;;;;4939813;28;20419;-60
2023/08/01 06:31:31;;;;;;;5.78;3.28;;;19.20;80.70;;;;;;4939850;28;20375;-60
2023/08/01 06:33:57;;;;;;;3.30;2.72;;;19.20;80.60;;;;;;4938172;28;20076;-59
2023/08/01 06:36:22;;;;;;;4.32;2.72;;;19.30;80.50;;;;;;4940574;28;20138;-59
2023/08/01 06:38:48;;;;;;;3.80;2.88;;;19.30;80.10;;;;;;4938736;28;20410;-58
2023/08/01 06:41:13;;;;;;;3.38;3.00;;;19.30;79.80;;;;;;4939754;28;20051;-61
2023/08/01 06:43:39;;;;;;;4.65;3.20;;;19.40;79.80;;;;;;4939110;28;20594;-60
2023/08/01 06:46:05;;;;;;;4.43;3.35;;;19.40;79.80;;;;;;4938430;28;20075;-58
2023/08/01 06:48:34;;;;;;;4.78;2.80;;;19.40;79.90;;;;;;4938520;28;20601;-59
2023/08/01 06:51:01;;;;;;;4.20;3.08;;;19.50;79.80;;;;;;4938833;28;20601;-60
2023/08/01 06:53:26;;;;;;;5.50;3.00;;;19.50;79.60;;;;;;4939602;28;20055;-61
2023/08/01 06:55:52;;;;;;;4.47;2.63;;;19.60;79.60;;;;;;4936889;28;20427;-59
2023/08/01 06:58:19;;;;;;;5.43;3.20;;;19.60;79.40;;;;;;4938755;28;20130;-60
2023/08/01 07:00:44;;;;;;;3.15;2.47;;;19.60;79.40;;;;;;4939856;28;20039;-60
2023/08/01 07:03:10;;;;;;;4.70;3.20;;;19.60;79.30;;;;;;4939540;28;20036;-59
2023/08/01 07:05:35;;;;;;;3.15;2.85;;;19.60;79.00;;;;;;4939668;29;20098;-57
2023/08/01 07:08:01;;;;;;;3.20;2.60;;;19.60;78.70;;;;;;4939018;28;20036;-58
2023/08/01 07:10:26;;;;;;;4.35;2.70;;;19.60;78.60;;;;;;4941309;28;20055;-59
2023/08/01 07:12:52;;;;;;;4.07;2.65;;;19.60;78.40;;;;;;4939695;28;20507;-58
2023/08/01 07:15:18;;;;;;;3.45;2.85;;;19.60;78.00;;;;;;4939494;28;20559;-59
2023/08/01 07:17:43;;;;;;;5.80;2.80;;;19.60;78.00;;;;;;4938005;28;20052;-60
2023/08/01 07:20:09;;;;;;;5.40;2.63;;;19.60;78.00;;;;;;4939611;28;20499;-60
2023/08/01 07:22:35;;;;;;;4.43;2.75;;;19.60;77.70;;;;;;4940441;28;20034;-58
2023/08/01 07:25:00;;;;;;;5.53;2.53;;;19.60;77.50;;;;;;4942533;29;20032;-59
2023/08/01 07:27:26;;;;;;;3.28;2.50;;;19.70;77.30;;;;;;4943864;28;20265;-59
2023/08/01 07:29:51;;;;;;;4.00;2.42;;;19.70;76.80;;;;;;4943179;29;20039;-58
2023/08/01 07:32:17;;;;;;;3.72;2.33;;;19.70;77.50;;;;;;4944017;28;20035;-59
2023/08/01 07:34:42;;;;;;;3.60;2.30;;;19.70;76.50;;;;;;4943266;28;20511;-60
2023/08/01 07:37:08;;;;;;;3.70;2.28;;;19.70;76.20;;;;;;4942347;29;20101;-59
2023/08/01 07:39:34;;;;;;;2.90;2.28;;;19.70;76.10;;;;;;4943969;28;20042;-58
2023/08/01 07:42:00;;;;;;;3.92;2.22;;;19.70;75.80;;;;;;4942597;28;20032;-60
2023/08/01 07:44:26;;;;;;;2.55;2.35;;;19.70;75.60;;;;;;4944249;28;20050;-59
2023/08/01 07:46:51;;;;;;;4.43;2.65;;;19.70;75.70;;;;;;4941825;28;20044;-59
2023/08/01 07:49:17;;;;;;;2.88;2.33;;;19.80;76.70;;;;;;4942304;28;20416;-60
2023/08/01 07:51:42;;;;;;;2.72;2.20;;;19.80;75.80;;;;;;4942208;28;20417;-61
2023/08/01 07:54:08;;;;;;;3.55;2.55;;;19.80;75.60;;;;;;4943091;28;20055;-61
2023/08/01 07:56:33;;;;;;;4.70;2.10;;;19.80;75.60;;;;;;4940773;28;20384;-60
2023/08/01 07:58:59;;;;;;;4.35;2.70;;;19.80;75.80;;;;;;4941964;28;20031;-60
2023/08/01 08:01:25;;;;;;;3.50;2.65;;;19.80;76.50;;;;;;4940617;28;20032;-60
2023/08/01 08:03:50;;;;;;;3.42;2.75;;;19.80;75.70;;;;;;4941796;28;20039;-60
2023/08/01 08:06:16;;;;;;;4.10;2.70;;;19.80;75.60;;;;;;4945031;28;20047;-60
2023/08/01 08:08:41;;;;;;;2.88;2.58;;;19.80;75.80;;;;;;4942870;28;20042;-60
2023/08/01 08:11:07;;;;;;;4.68;2.70;;;19.80;75.90;;;;;;4943560;28;20997;-60
2023/08/01 08:13:32;;;;;;;5.30;2.97;;;19.80;76.00;;;;;;4942637;28;20439;-59
2023/08/01 08:15:58;;;;;;;4.40;2.50;;;19.80;76.00;;;;;;4944198;28;20030;-61
2023/08/01 08:18:24;;;;;;;3.97;2.65;;;19.90;76.10;;;;;;4941267;28;20063;-60
2023/08/01 08:20:50;;;;;;;3.88;2.47;;;19.90;76.00;;;;;;4943914;28;20059;-60
2023/08/01 08:23:16;;;;;;;3.78;2.30;;;19.90;75.80;;;;;;4943458;28;20478;-60
2023/08/01 08:25:46;;;;;;;4.35;2.72;;;20.00;76.10;;;;;;4944089;28;20042;-60
2023/08/01 08:28:12;;;;;;;4.05;2.47;;;20.00;76.20;;;;;;4942559;28;20396;-59
2023/08/01 08:30:38;;;;;;;4.28;2.83;;;20.00;75.90;;;;;;4943989;28;20033;-58
2023/08/01 08:33:06;;;;;;;4.35;2.90;;;20.00;75.60;;;;;;4942829;28;20050;-59
2023/08/01 08:35:33;;;;;;;3.88;2.72;;;20.10;75.60;;;;;;4942184;28;20043;-59
2023/08/01 08:37:59;;;;;;;3.05;2.75;;;20.10;75.60;;;;;;4940882;28;20499;-61
2023/08/01 08:40:25;;;;;;;5.32;2.78;;;20.10;75.40;;;;;;4943052;28;20046;-61
2023/08/01 08:42:52;;;;;;;2.95;2.70;;;20.10;75.50;;;;;;4924770;28;20261;-61
2023/08/01 08:45:20;;;;;;;3.88;2.80;;;20.10;76.00;;;;;;4942828;28;20202;-60
2023/08/01 08:47:54;;;;;;;3.80;2.60;;;20.10;76.00;;;;;;4943148;28;20036;-61
2023/08/01 08:50:20;;;;;;;2.90;2.33;;;20.10;76.10;;;;;;4943263;28;20050;-60
2023/08/01 08:52:46;;;;;;;3.42;2.53;;;20.10;75.70;;;;;;4940946;28;20051;-58
2023/08/01 08:55:12;;;;;;;4.03;2.70;;;20.10;75.60;;;;;;4942781;28;20529;-61
2023/08/01 08:57:39;;;;;;;5.53;3.08;;;20.00;75.40;;;;;;4941982;28;20115;-60
2023/08/01 09:00:06;;;;;;;4.30;2.80;;;20.00;75.90;;;;;;4943692;28;20043;-60
2023/08/01 09:02:33;;;;;;;3.00;2.38;;;20.00;75.80;;;;;;4943199;28;20403;-61
2023/08/01 09:04:59;;;;;;;6.80;3.00;;;20.00;75.80;;;;;;4942499;29;20031;-61
2023/08/01 09:07:33;;;;;;;3.10;2.38;;;19.90;75.40;;;;;;4942761;28;20090;-61
2023/08/01 09:09:59;;;;;;;4.03;2.83;;;19.90;75.70;;;;;;4943671;28;20032;-61
2023/08/01 09:12:26;;;;;;;4.90;3.13;;;19.90;75.60;;;;;;4942577;28;20027;-60
2023/08/01 09:14:56;;;;;;;4.65;2.78;;;19.80;76.10;;;;;;4941152;28;20036;-58
2023/08/01 09:17:21;;;;;;;4.95;3.00;;;19.70;77.50;;;;;;4940741;28;20522;-60
2023/08/01 09:19:47;;;;;;;4.00;2.45;;;19.60;77.00;;;;;;4942252;28;20047;-61
2023/08/01 09:22:14;;;;;;;4.03;2.88;;;19.60;77.40;;;;;;4942373;29;20107;-60
2023/08/01 09:24:52;;;;;;;3.63;2.85;;;19.60;77.90;;;;;;4941733;28;20579;-61
2023/08/01 09:27:17;;;;;;;5.45;2.80;;;19.40;79.50;;;;;;4942623;28;20118;-59
2023/08/01 09:29:43;;;;;;;4.53;3.05;;;19.40;79.10;;;;;;4942179;29;20754;-59
2023/08/01 09:32:13;;;;;;;3.63;2.60;;;19.30;79.50;;;;;;4942205;28;20031;-61
2023/08/01 09:34:40;;;;;;;4.90;2.80;;;19.30;80.10;;;;;;4940713;28;20130;-59
2023/08/01 09:37:06;;;;;;;3.70;2.53;;;19.20;79.80;;;;;;4941060;28;20115;-59
2023/08/01 09:39:31;;;;;;;4.53;2.80;;;19.20;80.10;;;;;;4941433;28;20039;-60
2023/08/01 09:41:58;;;;;;;3.95;2.60;;;19.20;80.60;;;;;;4942177;28;20042;-58
2023/08/01 09:44:27;;;;;;;4.68;2.97;;;19.10;80.80;;;;;;4940914;28;20055;-59
2023/08/01 09:47:00;;;;;;;4.95;2.70;;;19.10;81.00;;;;;;4940608;28;20041;-60
2023/08/01 09:49:28;;;;;;;4.80;2.92;;;19.00;82.20;;;;;;4941182;28;20047;-59
2023/08/01 09:51:54;;;;;;;4.05;2.63;;;19.00;81.90;;;;;;4941364;28;20329;-59
2023/08/01 09:54:20;;;;;;;3.85;2.67;;;19.00;81.90;;;;;;4942460;28;20046;-59
2023/08/01 09:56:50;;;;;;;5.00;2.65;;;19.00;82.10;;;;;;4941233;28;20486;-59
2023/08/01 09:59:24;;;;;;;3.83;2.40;;;18.90;82.40;;;;;;4942467;28;20039;-59
2023/08/01 10:01:52;;;;;;;4.83;2.67;;;18.90;83.10;;;;;;4941937;28;20102;-60
2023/08/01 10:04:28;;;;;;;3.78;2.58;;;18.90;82.90;;;;;;4942290;28;20308;-61
2023/08/01 10:06:59;;;;;;;2.95;2.53;;;18.90;83.50;;;;;;4942178;28;20036;-59
2023/08/01 10:09:25;;;;;;;3.22;2.50;;;18.90;82.80;;;;;;4941640;28;20035;-59
2023/08/01 10:11:51;;;;;;;3.72;2.50;;;18.80;82.70;;;;;;4942154;28;20393;-59
2023/08/01 10:14:21;;;;;;;2.53;2.33;;;18.90;83.30;;;;;;4942478;28;20039;-60
2023/08/01 10:16:47;;;;;;;3.05;2.10;;;18.90;83.60;;;;;;4941188;28;20499;-60
2023/08/01 10:19:13;;;;;;;3.42;2.38;;;18.80;83.60;;;;;;4942242;28;20043;-60
2023/08/01 10:21:43;;;;;;;2.78;2.10;;;18.90;84.00;;;;;;4942611;28;20475;-61
2023/08/01 10:24:11;;;;;;;3.30;2.03;;;18.90;84.00;;;;;;4942264;28;20043;-60
2023/08/01 10:26:37;;;;;;;4.13;1.75;;;18.90;84.10;;;;;;4929639;28;20110;-61
2023/08/01 10:29:02;;;;;;;2.03;1.83;;;18.80;83.80;;;;;;4941731;28;20043;-62
2023/08/01 10:31:28;;;;;;;2.25;1.75;;;18.90;84.00;;;;;;4941696;28;20411;-60
2023/08/01 10:34:07;;;;;;;1.75;1.42;;;18.90;84.10;;;;;;4941891;28;20042;-60
2023/08/01 10:36:33;;;;;;;2.15;1.40;;;18.90;85.10;;;;;;4938914;28;20054;-61
2023/08/01 10:39:02;;;;;;;2.58;1.60;;;18.90;84.60;;;;;;4941031;28;20388;-60
2023/08/01 10:41:32;;;;;;;1.55;1.33;;;18.80;84.60;;;;;;4940650;28;20516;-61
2023/08/01 10:44:16;;;;;;;2.30;1.50;;;18.80;84.60;;;;;;4939956;28;20066;-61
2023/08/01 10:46:49;;;;;;;2.55;1.58;;;18.90;85.90;;;;;;4939052;28;20035;-60
2023/08/01 10:49:15;;;;;;;2.05;1.50;;;18.90;85.30;;;;;;4940782;28;20150;-60
2023/08/01 10:51:42;;;;;;;1.50;1.40;;;18.90;84.80;;;;;;4940073;28;20061;-60
2023/08/01 10:54:24;;;;;;;2.47;1.67;;;18.90;85.30;;;;;;4940055;29;20035;-61
2023/08/01 10:57:01;;;;;;;1.85;1.67;;;18.80;87.00;;;;;;4939409;28;20042;-61
2023/08/01 10:59:27;;;;;;;2.67;1.80;;;18.90;86.20;;;;;;4941929;28;20043;-61
2023/08/01 11:01:57;;;;;;;2.33;1.50;;;19.00;87.10;;;;;;4939183;28;20042;-60
2023/08/01 11:04:24;;;;;;;2.15;1.60;;;19.00;87.40;;;;;;4940728;28;20044;-60
2023/08/01 11:06:56;;;;;;;2.00;1.52;;;19.10;87.90;;;;;;4940315;28;20035;-61
2023/08/01 11:09:22;;;;;;;2.03;1.65;;;19.20;87.50;;;;;;4939598;28;20051;-59
2023/08/01 11:11:50;;;;;;;1.33;1.23;;;19.30;87.40;;;;;;4941591;28;20031;-60
2023/08/01 11:14:19;;;;;;;1.55;1.45;;;19.40;87.60;;;;;;4941695;28;20071;-59
2023/08/01 11:16:44;;;;;;;1.90;1.52;;;19.50;87.10;;;;;;4927633;28;20118;-59
2023/08/01 11:19:26;;;;;;;1.70;1.55;;;19.50;87.70;;;;;;4941067;28;20127;-59
2023/08/01 11:21:53;;;;;;;1.63;1.50;;;19.60;86.80;;;;;;4941291;29;20392;-60
2023/08/01 11:24:19;;;;;;;2.00;1.50;;;19.70;86.00;;;;;;4941282;28;20507;-61
2023/08/01 11:26:48;;;;;;;2.22;1.55;;;19.70;85.90;;;;;;4922826;28;20125;-62
2023/08/01 11:29:15;;;;;;;1.98;1.58;;;19.70;86.40;;;;;;4939769;28;20028;-61
2023/08/01 11:31:41;;;;;;;1.70;1.52;;;19.70;87.00;;;;;;4939380;28;20042;-61
2023/08/01 11:34:10;;;;;;;1.73;1.55;;;19.80;87.50;;;;;;4939490;28;20110;-59
2023/08/01 11:36:38;;;;;;;1.38;1.27;;;19.80;88.00;;;;;;4938604;28;20035;-60
2023/08/01 11:39:04;;;;;;;1.85;1.63;;;19.80;88.40;;;;;;4940458;28;20038;-61
2023/08/01 11:41:30;;;;;;;2.53;1.65;;;19.90;88.80;;;;;;4939875;28;20031;-60
2023/08/01 11:44:01;;;;;;;2.08;1.63;;;20.00;88.20;;;;;;4939881;28;20455;-60
2023/08/01 11:46:35;;;;;;;1.63;1.50;;;20.10;87.60;;;;;;4939310;28;20558;-61
2023/08/01 11:49:01;;;;;;;2.10;1.60;;;20.20;87.30;;;;;;4940232;28;20047;-60
2023/08/01 11:51:28;;;;;;;1.83;1.55;;;20.30;86.90;;;;;;4940550;28;20035;-60
2023/08/01 11:54:04;;;;;;;1.77;1.60;;;20.30;86.90;;;;;;4940238;28;20039;-59
2023/08/01 11:56:33;;;;;;;1.92;1.75;;;20.40;86.80;;;;;;4940204;28;20594;-60
2023/08/01 11:58:59;;;;;;;2.10;1.50;;;20.40;86.50;;;;;;4940588;28;20036;-58
2023/08/01 12:01:25;;;;;;;1.33;1.23;;;20.50;86.20;;;;;;4941363;28;20087;-61
2023/08/01 12:03:55;;;;;;;1.50;1.33;;;20.50;86.00;;;;;;4938536;28;20067;-61
2023/08/01 12:06:23;;;;;;;1.20;1.10;;;20.50;85.20;;;;;;4940971;28;20068;-61
2023/08/01 12:08:51;;;;;;;1.75;1.40;;;20.60;85.00;;;;;;4939486;28;20054;-61
2023/08/01 12:11:25;;;;;;;2.33;1.23;;;20.60;85.00;;;;;;4944475;28;20035;-61
2023/08/01 12:14:04;;;;;;;3.05;1.58;;;20.60;85.20;;;;;;4943731;28;20047;-63
2023/08/01 12:16:31;;;;;;;1.98;1.50;;;20.60;85.30;;;;;;4942208;28;20380;-63
2023/08/01 12:18:57;;;;;;;2.58;1.23;;;20.60;85.20;;;;;;4943995;28;20054;-62
2023/08/01 12:21:23;;;;;;;10.65;2.00;;;20.60;85.40;;;;;;4945064;28;20125;-62
2023/08/01 12:23:48;;;;;;;1.35;1.25;;;20.60;85.50;;;;;;4943783;28;20118;-61
2023/08/01 12:26:14;;;;;;;1.40;1.30;;;20.60;85.40;;;;;;4943168;29;20044;-63
2023/08/01 12:28:39;;;;;;;1.83;1.42;;;20.60;85.30;;;;;;4943232;28;20573;-59
2023/08/01 12:31:05;;;;;;;4.20;1.70;;;20.60;85.10;;;;;;4944067;28;20044;-61
2023/08/01 12:33:32;;;;;;;2.08;1.45;;;20.60;84.60;;;;;;4944012;28;20046;-60
2023/08/01 12:35:58;;;;;;;2.38;1.70;;;20.60;84.30;;;;;;4942094;28;20082;-62
2023/08/01 12:38:23;;;;;;;2.58;1.85;;;20.60;84.10;;;;;;4943848;28;20032;-62
2023/08/01 12:40:49;;;;;;;2.20;1.65;;;20.50;84.60;;;;;;4942187;28;20039;-62
2023/08/01 12:43:16;;;;;;;5.03;1.95;;;20.50;84.80;;;;;;4943459;28;20066;-62
2023/08/01 12:45:42;;;;;;;3.25;1.92;;;20.40;85.20;;;;;;4942477;28;20031;-62